createdAt,value
2022-08-01T00:05:00.864Z,18.8
2022-08-01T00:20:01.115Z,18.4
2022-08-01T00:35:00.854Z,18.5
2022-08-01T00:50:00.867Z,18.4
2022-08-01T01:05:00.845Z,18.4
2022-08-01T01:20:00.852Z,18.4
2022-08-01T01:35:00.849Z,18.5
2022-08-01T01:50:00.839Z,18.5
2022-08-01T02:05:00.846Z,18.5
2022-08-01T02:20:00.839Z,18.6
2022-08-01T02:35:00.843Z,18.6
2022-08-01T02:50:00.842Z,18.5
2022-08-01T03:05:00.845Z,18.5
2022-08-01T03:20:00.858Z,18.5
2022-08-01T03:35:00.860Z,18.5
2022-08-01T03:50:00.850Z,18.5
2022-08-01T04:05:00.867Z,18.5
2022-08-01T04:20:00.855Z,18.6
2022-08-01T04:35:00.860Z,18.4
2022-08-01T04:50:00.847Z,18.4
2022-08-01T05:05:00.846Z,18.5
2022-08-01T05:20:00.869Z,18.4
2022-08-01T05:35:00.860Z,18.5
2022-08-01T05:50:00.886Z,18.4
2022-08-01T06:05:00.869Z,18.3
2022-08-01T06:20:00.871Z,18.6
2022-08-01T06:35:00.923Z,18.8
2022-08-01T06:50:00.859Z,18.8
2022-08-01T07:05:00.864Z,18.5
2022-08-01T07:20:00.857Z,18.6
2022-08-01T07:35:00.846Z,18.9
2022-08-01T07:50:00.867Z,19.4
2022-08-01T08:05:00.852Z,19.3
2022-08-01T08:20:00.870Z,19.8
2022-08-01T08:35:00.870Z,19.9
2022-08-01T08:50:00.862Z,19.7
2022-08-01T09:05:00.849Z,19.5
2022-08-01T09:20:00.852Z,18.6
2022-08-01T09:35:00.852Z,19.2
2022-08-01T09:50:00.926Z,19.8
2022-08-01T10:05:03.538Z,20.6
2022-08-01T10:20:00.996Z,21.2
2022-08-01T10:35:06.410Z,21.4
2022-08-01T10:50:00.862Z,21.6
2022-08-01T11:05:00.857Z,21.9
2022-08-01T11:20:00.869Z,22.2
2022-08-01T11:35:00.872Z,22.3
2022-08-01T11:50:00.855Z,22.7
2022-08-01T12:05:00.865Z,23.1
2022-08-01T12:20:00.862Z,23.6
2022-08-01T12:35:00.856Z,23.7
2022-08-01T12:50:00.873Z,23.6
2022-08-01T13:05:00.857Z,23.9
2022-08-01T13:20:00.868Z,24
2022-08-01T13:35:00.879Z,24.4
2022-08-01T13:50:00.873Z,23.6
2022-08-01T14:05:00.897Z,24.1
2022-08-01T14:20:00.850Z,24.8
2022-08-01T14:35:00.861Z,23.9
2022-08-01T14:50:00.848Z,24.4
2022-08-01T15:05:00.872Z,24.6
2022-08-01T15:20:00.846Z,24
2022-08-01T15:35:00.861Z,25.8
2022-08-01T15:50:00.862Z,25.4
2022-08-01T16:05:00.844Z,25.8
2022-08-01T16:20:00.849Z,25.6
2022-08-01T16:35:00.871Z,24.9
2022-08-01T16:50:00.859Z,25.7
2022-08-01T17:05:00.857Z,25.1
2022-08-01T17:20:00.859Z,25.8
2022-08-01T17:35:00.881Z,24.8
2022-08-01T17:50:00.910Z,25.1
2022-08-01T18:05:00.877Z,24.8
2022-08-01T18:20:00.865Z,24
2022-08-01T18:35:00.844Z,23.5
2022-08-01T18:50:00.863Z,23.1
2022-08-01T19:05:00.875Z,22.9
2022-08-01T19:20:00.867Z,22.3
2022-08-01T19:35:00.853Z,22
2022-08-01T19:50:00.860Z,21.8
2022-08-01T20:05:00.872Z,21.5
2022-08-01T20:20:00.869Z,21.3
2022-08-01T20:35:00.853Z,20.9
2022-08-01T20:50:00.844Z,20.8
2022-08-01T21:05:00.850Z,20.4
2022-08-01T21:20:00.867Z,20.2
2022-08-01T21:35:00.858Z,20
2022-08-01T21:50:00.861Z,19.8
2022-08-01T22:05:00.866Z,19.5
2022-08-01T22:20:00.850Z,19.2
2022-08-01T22:35:00.862Z,18.9
2022-08-01T22:50:00.869Z,18.8
2022-08-01T23:05:00.845Z,18.4
2022-08-01T23:20:00.867Z,18.6
2022-08-01T23:35:00.846Z,18.2
2022-08-01T23:50:00.847Z,18.3
